Impacts TAF Board INFO
FOR SITUATIONAL AWARENESS. NOT TO BE USED FOR FLIGHT PLANNING PURPOSES.
IDs:

KMGM - Montgomery/Dannely F, AL, US

Issued at 2145 UTC 23 May 2018
Updated at 2233 UTC 23 May 2018
Potential Impact None Slight Moderate High
Time<<24/11Z 24/12Z 24/13Z 24/14Z 24/15Z 24/16Z 24/17Z 24/18Z 24/19Z 24/20Z 24/21Z 24/22Z 24/23Z>>
Type PRVL PRVL PRVL PRVL PRVL PRVL PRVL
VIS >6 >6 >6 >6 >6 >6 >6
CIG 35 35 35 35 35 35 35
Cover BKN BKN BKN BKN BKN BKN BKN
FltCat VFR VFR VFR VFR VFR VFR VFR
WX VCSH VCSH VCSH VCSH VCSH VCSH VCSH
WDir VRB VRB VRB VRB VRB VRB VRB
WSpd 3 3 3 3 3 3 3
WGst -- -- -- -- -- -- --

Raw TAF
KMGM 232145Z 2322/2418 32008KT P6SM VCTS SCT025 BKN035CB BKN070
  TEMPO 2322/2323 03015G23KT RA BKN025
  FM232300 28005KT P6SM FEW025 SCT050 BKN250
  FM240900 VRB03KT P6SM VCSH SCT009 BKN035


METAR Board
Radar Display
Forecast Discussion

FOR SITUATIONAL AWARENESS. NOT TO BE USED FOR FLIGHT PLANNING PURPOSES.